Alamogordo/Holloman AFB, New Mexico
Current Conditions -  °F | °C
As of 11:58 AM on Wednesday 26 Nov 2014 (Local Time) from KHMN Reporting Station
Clear Clear  
Wind Chill: 61°   Ceiling: Unl
Heat Index: 61°   Visibility: 10mi
Dew Point: 20°   Wind: 10mph
Humidity: 20%   Direction: 340°NNW
Pressure: 30.31"   Gusts: NA
Location:  32.85°N, 106.1°W
Report Text: KHMN 261858Z AUTO 34009KT 10SM CLR 16/M07 A3031 RMK AO2 SLP242 T01621068 $
Loading
Personal Weather Stations






























Interactive Weather Map New forecast layout! Learn more

10-Day Weather Forecast

Advertisements
Track Severe Weather on mobile